Time;durP1;ratioP1;P1;durP2;ratioP2;P2;SDS_P1;SDS_P2;PMS_P1;PMS_P2;Temp;Humidity;BMP_temperature;BMP_pressure;BME280_temperature;BME280_humidity;BME280_pressure;Samples;Min_cycle;Max_cycle;Signal;HPM_P1;HPM_P2
2024/01/17 00:00:26;;;;;;;4.85;2.03;;;2.70;99.60;;;;;;5048525;28;20208;-46
2024/01/17 00:02:54;;;;;;;2.55;1.75;;;2.60;99.50;;;;;;5037701;28;20315;-46
2024/01/17 00:05:23;;;;;;;2.95;2.45;;;2.70;99.50;;;;;;5030150;28;20189;-45
2024/01/17 00:07:51;;;;;;;3.55;2.20;;;2.60;99.20;;;;;;5047835;28;20220;-46
2024/01/17 00:10:19;;;;;;;4.25;2.20;;;2.60;99.40;;;;;;5043624;28;20718;-46
2024/01/17 00:12:47;;;;;;;3.03;2.30;;;2.60;99.40;;;;;;5046473;28;20223;-46
2024/01/17 00:15:18;;;;;;;3.80;2.00;;;2.60;99.40;;;;;;5042803;28;20290;-45
2024/01/17 00:17:47;;;;;;;3.38;2.42;;;2.60;99.30;;;;;;5043864;28;20709;-46
2024/01/17 00:20:16;;;;;;;4.97;2.70;;;2.60;98.80;;;;;;5031907;28;20821;-46
2024/01/17 00:22:45;;;;;;;3.88;2.80;;;2.60;98.80;;;;;;5042864;28;20613;-45
2024/01/17 00:25:14;;;;;;;4.68;2.88;;;2.60;98.80;;;;;;5040440;28;20192;-45
2024/01/17 00:27:42;;;;;;;3.85;2.50;;;2.50;99.00;;;;;;5041829;28;20753;-46
2024/01/17 00:30:11;;;;;;;4.53;2.40;;;2.50;99.00;;;;;;5047512;28;20223;-46
2024/01/17 00:32:41;;;;;;;5.85;2.50;;;2.60;99.00;;;;;;5038917;28;20244;-45
2024/01/17 00:35:10;;;;;;;3.90;3.15;;;2.60;99.20;;;;;;5035827;28;20224;-46
2024/01/17 00:37:38;;;;;;;6.93;2.80;;;2.50;99.10;;;;;;5040835;28;20268;-45
2024/01/17 00:40:07;;;;;;;5.25;2.58;;;2.60;99.10;;;;;;5045092;28;20683;-45
2024/01/17 00:42:36;;;;;;;3.75;2.42;;;2.50;99.00;;;;;;5043879;28;20221;-45
2024/01/17 00:45:06;;;;;;;2.40;1.85;;;2.50;99.30;;;;;;5039931;28;20252;-46
2024/01/17 00:47:36;;;;;;;4.70;2.53;;;2.60;99.40;;;;;;5039108;28;20225;-46
2024/01/17 00:50:06;;;;;;;4.53;2.40;;;2.60;99.40;;;;;;5047667;28;20211;-46
2024/01/17 00:52:35;;;;;;;3.10;2.10;;;2.60;99.40;;;;;;5040944;28;20792;-46
2024/01/17 00:55:03;;;;;;;2.70;2.40;;;2.60;99.30;;;;;;5026887;28;20196;-46
2024/01/17 00:57:32;;;;;;;3.85;2.42;;;2.60;98.90;;;;;;5046936;28;20221;-45
2024/01/17 01:00:01;;;;;;;3.38;2.40;;;2.60;99.10;;;;;;5045700;28;20246;-46
2024/01/17 01:02:29;;;;;;;2.83;2.35;;;2.60;99.60;;;;;;5045525;28;20267;-45
2024/01/17 01:04:57;;;;;;;7.15;2.75;;;2.50;99.10;;;;;;5038751;28;20207;-46
2024/01/17 01:07:27;;;;;;;3.28;2.65;;;2.50;98.60;;;;;;5046065;28;20783;-45
2024/01/17 01:09:55;;;;;;;3.78;2.60;;;2.50;98.40;;;;;;5037221;28;20653;-45
2024/01/17 01:12:25;;;;;;;4.57;3.10;;;2.50;98.50;;;;;;5038033;28;20224;-46
2024/01/17 01:14:53;;;;;;;4.22;2.88;;;2.50;97.80;;;;;;5044254;28;20201;-46
2024/01/17 01:17:21;;;;;;;3.00;2.50;;;2.40;97.80;;;;;;5043701;28;20209;-46
2024/01/17 01:19:49;;;;;;;6.10;3.83;;;2.40;98.00;;;;;;5050042;28;20197;-45
2024/01/17 01:22:17;;;;;;;3.50;2.78;;;2.40;98.30;;;;;;5036972;28;20220;-45
2024/01/17 01:24:47;;;;;;;4.47;3.00;;;2.40;98.40;;;;;;5036281;28;20689;-45
2024/01/17 01:27:15;;;;;;;3.60;2.90;;;2.40;98.20;;;;;;5035557;28;20879;-46
2024/01/17 01:29:43;;;;;;;3.50;2.78;;;2.40;98.30;;;;;;5039947;28;20208;-46
2024/01/17 01:32:11;;;;;;;5.07;2.72;;;2.40;98.80;;;;;;5036268;28;20254;-45
2024/01/17 01:34:40;;;;;;;5.95;3.33;;;2.40;98.80;;;;;;5043601;28;20197;-45
2024/01/17 01:37:08;;;;;;;3.58;2.05;;;2.40;98.40;;;;;;5038923;28;20307;-46
2024/01/17 01:39:37;;;;;;;5.28;2.80;;;2.40;98.80;;;;;;5034015;28;20209;-45
2024/01/17 01:42:07;;;;;;;3.08;2.05;;;2.40;98.60;;;;;;5039838;28;20213;-45
2024/01/17 01:44:35;;;;;;;5.07;3.15;;;2.40;98.30;;;;;;5022479;28;20197;-46
2024/01/17 01:47:07;;;;;;;4.10;2.78;;;2.40;98.40;;;;;;5035084;28;20220;-45
2024/01/17 01:49:36;;;;;;;2.92;2.40;;;2.40;98.70;;;;;;5038847;28;20204;-45
2024/01/17 01:52:06;;;;;;;2.75;2.30;;;2.40;99.00;;;;;;5046891;28;20212;-45
2024/01/17 01:54:35;;;;;;;3.15;2.30;;;2.50;98.80;;;;;;5041642;28;20192;-45
2024/01/17 01:57:06;;;;;;;3.20;2.28;;;2.50;98.70;;;;;;5041216;28;20228;-46
2024/01/17 01:59:35;;;;;;;5.13;2.90;;;2.50;99.00;;;;;;5048298;28;20221;-45
2024/01/17 02:02:04;;;;;;;7.72;4.30;;;2.40;98.40;;;;;;5042584;28;20220;-45
2024/01/17 02:04:35;;;;;;;3.17;2.40;;;2.40;97.90;;;;;;5037789;28;20207;-45
2024/01/17 02:07:03;;;;;;;5.60;3.45;;;2.40;98.60;;;;;;5041568;28;20262;-45
2024/01/17 02:09:32;;;;;;;4.70;2.58;;;2.40;98.10;;;;;;5037089;28;20201;-45
2024/01/17 02:12:00;;;;;;;6.35;4.18;;;2.40;98.10;;;;;;5044268;28;20648;-45
2024/01/17 02:14:30;;;;;;;3.90;3.50;;;2.40;98.30;;;;;;5040839;28;20193;-45
2024/01/17 02:16:59;;;;;;;3.95;3.30;;;2.40;98.10;;;;;;5042988;28;20248;-45
2024/01/17 02:19:27;;;;;;;4.03;2.85;;;2.40;98.40;;;;;;5038308;28;20193;-45
2024/01/17 02:21:55;;;;;;;3.92;3.00;;;2.40;98.30;;;;;;5033147;28;20228;-45
2024/01/17 02:24:28;;;;;;;3.97;3.05;;;2.40;98.60;;;;;;5045118;28;20559;-45
2024/01/17 02:26:59;;;;;;;3.55;3.25;;;2.40;98.50;;;;;;5039316;28;20595;-45
2024/01/17 02:29:27;;;;;;;3.15;2.70;;;2.40;98.80;;;;;;5045605;28;20198;-45
2024/01/17 02:31:57;;;;;;;3.88;2.80;;;2.40;98.90;;;;;;5036232;28;20221;-45
2024/01/17 02:34:26;;;;;;;2.50;2.30;;;2.40;98.60;;;;;;5043106;28;20221;-46
2024/01/17 02:36:55;;;;;;;6.07;2.92;;;2.40;99.20;;;;;;5040159;28;20312;-45
2024/01/17 02:39:25;;;;;;;3.00;2.70;;;2.40;98.70;;;;;;5041438;28;20196;-45
2024/01/17 02:41:53;;;;;;;3.25;2.75;;;2.40;98.70;;;;;;5042565;28;20627;-45
2024/01/17 02:44:21;;;;;;;2.83;2.45;;;2.40;98.60;;;;;;5033051;28;20209;-45
2024/01/17 02:46:50;;;;;;;3.70;2.40;;;2.40;98.80;;;;;;5035178;28;20221;-45
2024/01/17 02:49:19;;;;;;;3.25;2.42;;;2.40;98.90;;;;;;5044394;28;20208;-45
2024/01/17 02:51:48;;;;;;;4.07;2.53;;;2.40;99.00;;;;;;5034048;28;20707;-46
2024/01/17 02:54:16;;;;;;;4.20;3.20;;;2.40;98.50;;;;;;5039744;28;20496;-45
2024/01/17 02:56:45;;;;;;;4.43;3.50;;;2.40;98.60;;;;;;5042810;28;20229;-45
2024/01/17 02:59:14;;;;;;;5.40;3.67;;;2.40;98.80;;;;;;5044682;28;20205;-46
2024/01/17 03:01:42;;;;;;;3.42;2.83;;;2.40;98.60;;;;;;5040388;28;20719;-45
2024/01/17 03:04:11;;;;;;;3.78;2.28;;;2.40;98.40;;;;;;5037167;28;20217;-45
2024/01/17 03:06:39;;;;;;;4.20;2.78;;;2.40;98.60;;;;;;5043467;28;20697;-45
2024/01/17 03:09:08;;;;;;;3.15;2.45;;;2.40;98.60;;;;;;5047715;28;20226;-45
2024/01/17 03:11:36;;;;;;;4.03;3.15;;;2.40;98.90;;;;;;5042971;28;20213;-45
2024/01/17 03:14:06;;;;;;;4.20;2.58;;;2.40;98.50;;;;;;5037252;28;20177;-45
2024/01/17 03:16:36;;;;;;;3.95;2.75;;;2.40;98.70;;;;;;5036387;28;20217;-45
2024/01/17 03:19:06;;;;;;;4.13;3.13;;;2.40;98.50;;;;;;5043764;28;20242;-45
2024/01/17 03:21:35;;;;;;;3.35;2.90;;;2.40;98.50;;;;;;5032175;28;20229;-45
2024/01/17 03:24:03;;;;;;;3.70;2.85;;;2.40;98.70;;;;;;5039639;28;20300;-45
2024/01/17 03:26:32;;;;;;;3.42;2.70;;;2.40;98.70;;;;;;5037689;28;20229;-45
2024/01/17 03:29:00;;;;;;;4.38;2.72;;;2.40;99.00;;;;;;5036433;28;20225;-45
2024/01/17 03:31:29;;;;;;;3.60;2.33;;;2.40;98.50;;;;;;5040069;28;20520;-45
2024/01/17 03:33:59;;;;;;;3.55;2.80;;;2.40;98.60;;;;;;5036806;28;20246;-44
2024/01/17 03:36:27;;;;;;;4.68;2.92;;;2.40;98.20;;;;;;5042032;28;20718;-45
2024/01/17 03:38:56;;;;;;;3.45;2.38;;;2.40;98.10;;;;;;5039730;28;20200;-45
2024/01/17 03:41:23;;;;;;;2.38;2.15;;;2.30;98.40;;;;;;5035625;28;20225;-45
2024/01/17 03:43:52;;;;;;;4.50;3.03;;;2.30;98.40;;;;;;5035146;28;20240;-45
2024/01/17 03:46:22;;;;;;;3.10;2.70;;;2.30;98.20;;;;;;5024301;28;20742;-45
2024/01/17 03:48:51;;;;;;;4.88;2.30;;;2.30;98.80;;;;;;5040805;28;20610;-45
2024/01/17 03:51:20;;;;;;;3.42;2.85;;;2.30;98.70;;;;;;5039991;28;20279;-45
2024/01/17 03:53:48;;;;;;;5.88;2.78;;;2.30;98.60;;;;;;5039477;28;20193;-45
2024/01/17 03:56:16;;;;;;;3.05;2.40;;;2.30;98.20;;;;;;5016844;28;20410;-45
2024/01/17 03:58:45;;;;;;;2.63;2.22;;;2.30;98.40;;;;;;5036485;28;20197;-46
2024/01/17 04:01:15;;;;;;;3.35;2.40;;;2.30;98.60;;;;;;5036236;28;20231;-45
2024/01/17 04:03:43;;;;;;;5.53;3.10;;;2.30;98.50;;;;;;5046772;28;20205;-45
2024/01/17 04:06:13;;;;;;;3.13;2.72;;;2.30;98.10;;;;;;5044924;28;20201;-44
2024/01/17 04:08:43;;;;;;;4.05;3.00;;;2.30;98.30;;;;;;5038138;28;20194;-45
2024/01/17 04:11:11;;;;;;;3.70;2.78;;;2.30;98.60;;;;;;5033561;28;20220;-45
2024/01/17 04:13:42;;;;;;;3.33;2.45;;;2.30;98.60;;;;;;5038853;28;20194;-45
2024/01/17 04:16:11;;;;;;;4.47;3.33;;;2.30;98.80;;;;;;5040400;28;20200;-45
2024/01/17 04:18:39;;;;;;;5.18;3.08;;;2.30;98.60;;;;;;5023300;28;20245;-45
2024/01/17 04:21:07;;;;;;;3.63;2.45;;;2.30;98.80;;;;;;5037376;28;20218;-45
2024/01/17 04:23:38;;;;;;;3.63;2.65;;;2.30;98.70;;;;;;5039901;28;20660;-44
2024/01/17 04:26:07;;;;;;;3.45;2.80;;;2.30;98.30;;;;;;5027170;28;21141;-44
2024/01/17 04:28:35;;;;;;;4.80;3.33;;;2.30;98.30;;;;;;5036499;28;20193;-45
2024/01/17 04:31:04;;;;;;;4.68;3.70;;;2.30;98.20;;;;;;5042181;28;20698;-45
2024/01/17 04:33:33;;;;;;;6.00;3.20;;;2.30;98.40;;;;;;5040750;28;20272;-46
2024/01/17 04:36:01;;;;;;;3.00;2.10;;;2.30;98.20;;;;;;5037970;28;20209;-45
2024/01/17 04:38:30;;;;;;;4.20;2.45;;;2.30;98.40;;;;;;5038024;28;20198;-45
2024/01/17 04:40:59;;;;;;;4.47;3.10;;;2.20;98.30;;;;;;5043960;28;20332;-44
2024/01/17 04:43:28;;;;;;;3.75;2.80;;;2.30;98.40;;;;;;5046056;28;20690;-45
2024/01/17 04:45:56;;;;;;;3.67;2.53;;;2.30;98.80;;;;;;5042282;28;20193;-44
2024/01/17 04:48:24;;;;;;;3.63;2.97;;;2.30;98.90;;;;;;5046477;28;20197;-45
2024/01/17 04:50:57;;;;;;;4.78;3.03;;;2.30;98.60;;;;;;5039975;28;20224;-45
2024/01/17 04:53:26;;;;;;;4.45;3.10;;;2.30;98.70;;;;;;5047915;28;20218;-45
2024/01/17 04:55:54;;;;;;;4.60;3.10;;;2.30;98.50;;;;;;5041293;28;20193;-44
2024/01/17 04:58:24;;;;;;;3.53;2.75;;;2.30;98.80;;;;;;5042486;28;20259;-45
2024/01/17 05:00:52;;;;;;;4.25;2.58;;;2.30;98.80;;;;;;5046615;28;20216;-45
2024/01/17 05:03:20;;;;;;;6.00;3.22;;;2.30;98.60;;;;;;5038014;28;20233;-45
2024/01/17 05:05:48;;;;;;;5.47;3.17;;;2.30;98.40;;;;;;5044743;28;20663;-45
2024/01/17 05:08:17;;;;;;;4.10;3.13;;;2.30;98.50;;;;;;5047953;28;20601;-45
2024/01/17 05:10:45;;;;;;;5.65;3.65;;;2.20;98.00;;;;;;5041733;28;20221;-45
2024/01/17 05:13:14;;;;;;;5.32;3.45;;;2.20;97.50;;;;;;5034953;28;20759;-45
2024/01/17 05:15:44;;;;;;;5.45;4.18;;;2.20;97.70;;;;;;5042305;28;20248;-46
2024/01/17 05:18:13;;;;;;;5.38;3.10;;;2.20;97.80;;;;;;5039195;28;20220;-45
2024/01/17 05:20:41;;;;;;;5.43;3.08;;;2.20;98.10;;;;;;5040842;28;20201;-45
2024/01/17 05:23:10;;;;;;;4.93;2.80;;;2.10;97.60;;;;;;5043052;28;20221;-44
2024/01/17 05:25:39;;;;;;;3.50;2.75;;;2.10;98.00;;;;;;5039784;28;20215;-46
2024/01/17 05:28:09;;;;;;;3.83;2.53;;;2.10;98.00;;;;;;5045691;28;20231;-45
2024/01/17 05:30:37;;;;;;;4.50;3.40;;;2.10;98.50;;;;;;5040378;28;20202;-45
2024/01/17 05:33:07;;;;;;;4.88;2.80;;;2.20;98.50;;;;;;5038810;28;20229;-45
2024/01/17 05:35:36;;;;;;;5.75;2.97;;;2.20;98.50;;;;;;5042758;28;20208;-45
2024/01/17 05:38:04;;;;;;;3.83;2.97;;;2.20;98.40;;;;;;5041350;28;20213;-45
2024/01/17 05:40:33;;;;;;;5.40;3.10;;;2.20;98.60;;;;;;5044271;28;20245;-45
2024/01/17 05:43:03;;;;;;;4.65;3.22;;;2.20;98.60;;;;;;5040016;28;20236;-45
2024/01/17 05:45:31;;;;;;;3.40;2.65;;;2.20;98.40;;;;;;5043176;28;20642;-45
2024/01/17 05:47:59;;;;;;;5.65;3.20;;;2.20;98.60;;;;;;5047069;28;20647;-45
2024/01/17 05:50:29;;;;;;;3.83;3.38;;;2.20;98.20;;;;;;5039755;28;20189;-45
2024/01/17 05:52:57;;;;;;;5.80;3.28;;;2.20;97.90;;;;;;5021364;28;20216;-45
2024/01/17 05:55:26;;;;;;;4.63;3.55;;;2.10;98.10;;;;;;5044804;28;20626;-45
2024/01/17 05:57:55;;;;;;;4.20;3.20;;;2.10;98.10;;;;;;5034578;28;20308;-45
2024/01/17 06:00:24;;;;;;;4.10;2.85;;;2.10;98.00;;;;;;5035217;28;20205;-45
2024/01/17 06:02:52;;;;;;;6.10;2.88;;;2.10;98.10;;;;;;5041868;28;20231;-45
2024/01/17 06:05:21;;;;;;;5.47;2.60;;;2.10;98.70;;;;;;5033694;28;20230;-45
2024/01/17 06:07:51;;;;;;;3.88;2.20;;;2.20;99.00;;;;;;5039931;28;20270;-45
2024/01/17 06:10:19;;;;;;;3.55;2.53;;;2.20;99.20;;;;;;5045316;28;20377;-45
2024/01/17 06:12:48;;;;;;;3.55;2.58;;;2.20;99.10;;;;;;5036986;28;20225;-45
2024/01/17 06:15:17;;;;;;;3.92;2.83;;;2.20;99.10;;;;;;5038553;28;20227;-44
2024/01/17 06:17:46;;;;;;;5.25;3.40;;;2.20;99.00;;;;;;5032755;28;20228;-45
2024/01/17 06:20:15;;;;;;;4.43;2.85;;;2.20;98.80;;;;;;5041508;28;20200;-46
2024/01/17 06:22:44;;;;;;;4.22;2.65;;;2.20;98.90;;;;;;5039615;28;20236;-45
2024/01/17 06:25:14;;;;;;;5.60;3.10;;;2.20;98.90;;;;;;5034945;28;20212;-45
2024/01/17 06:27:42;;;;;;;5.03;3.20;;;2.20;98.90;;;;;;5037867;28;20221;-45
2024/01/17 06:30:12;;;;;;;6.10;4.30;;;2.20;98.40;;;;;;5043799;28;20284;-44
2024/01/17 06:32:41;;;;;;;5.00;3.70;;;2.20;98.30;;;;;;5045521;28;20266;-45
2024/01/17 06:35:11;;;;;;;5.70;3.67;;;2.20;98.10;;;;;;5037505;28;20200;-45
2024/01/17 06:37:39;;;;;;;4.05;3.00;;;2.20;98.10;;;;;;5043143;28;20227;-44
2024/01/17 06:40:10;;;;;;;4.75;3.17;;;2.20;98.40;;;;;;5039206;28;20868;-45
2024/01/17 06:42:40;;;;;;;4.85;2.55;;;2.10;98.50;;;;;;5044303;28;20228;-45
2024/01/17 06:45:10;;;;;;;4.70;2.85;;;2.10;98.10;;;;;;5045278;28;20581;-45
2024/01/17 06:47:39;;;;;;;4.38;2.65;;;2.10;98.50;;;;;;5032095;28;20598;-46
2024/01/17 06:50:09;;;;;;;5.20;3.10;;;2.10;98.80;;;;;;5055820;28;20193;-45
2024/01/17 06:52:37;;;;;;;8.90;4.65;;;2.10;98.50;;;;;;5048790;28;20217;-45
2024/01/17 06:55:07;;;;;;;5.40;2.88;;;2.10;97.60;;;;;;5061389;28;20223;-45
2024/01/17 06:57:36;;;;;;;5.28;3.42;;;2.10;98.30;;;;;;5052002;28;20276;-46
2024/01/17 07:00:08;;;;;;;4.60;2.97;;;2.10;98.50;;;;;;5063035;28;20288;-46
2024/01/17 07:02:37;;;;;;;5.90;3.63;;;2.10;98.60;;;;;;5045171;28;20229;-45
2024/01/17 07:05:05;;;;;;;3.60;2.53;;;2.10;98.70;;;;;;5056989;28;20213;-46
2024/01/17 07:07:34;;;;;;;6.40;4.20;;;2.10;98.90;;;;;;5050899;28;20228;-45
2024/01/17 07:10:05;;;;;;;3.25;2.70;;;2.10;98.50;;;;;;5053366;28;20220;-44
2024/01/17 07:12:34;;;;;;;3.83;2.80;;;2.20;99.10;;;;;;5049101;28;20235;-45
2024/01/17 07:15:02;;;;;;;3.90;2.70;;;2.20;99.10;;;;;;5038242;28;20276;-45
2024/01/17 07:17:32;;;;;;;4.43;2.90;;;2.20;99.20;;;;;;5035407;28;20706;-46
2024/01/17 07:20:00;;;;;;;2.95;2.58;;;2.20;99.00;;;;;;5041337;28;20280;-45
2024/01/17 07:22:28;;;;;;;4.88;2.95;;;2.20;99.00;;;;;;5021465;28;20225;-46
2024/01/17 07:24:56;;;;;;;3.75;3.30;;;2.20;98.50;;;;;;5037732;28;20698;-45
2024/01/17 07:27:25;;;;;;;4.65;2.97;;;2.20;98.60;;;;;;5042840;28;20662;-45
2024/01/17 07:29:54;;;;;;;4.88;2.70;;;2.20;98.90;;;;;;5040760;28;20721;-45
2024/01/17 07:32:23;;;;;;;3.78;2.83;;;2.20;99.00;;;;;;5026297;28;20236;-45
2024/01/17 07:34:53;;;;;;;4.00;2.90;;;2.20;99.10;;;;;;5038184;28;20204;-45
2024/01/17 07:37:21;;;;;;;3.78;2.95;;;2.20;99.00;;;;;;5040503;28;20266;-45
2024/01/17 07:39:49;;;;;;;4.07;2.67;;;2.20;99.00;;;;;;5035316;28;20193;-45
2024/01/17 07:42:18;;;;;;;6.10;3.15;;;2.20;99.10;;;;;;5040295;28;20705;-44
2024/01/17 07:44:46;;;;;;;6.53;3.47;;;2.20;99.00;;;;;;5037212;28;20209;-45
2024/01/17 07:47:15;;;;;;;3.97;2.70;;;2.20;98.80;;;;;;5037474;28;20249;-45
2024/01/17 07:49:45;;;;;;;6.18;3.60;;;2.20;98.80;;;;;;5039966;28;20200;-45
2024/01/17 07:52:14;;;;;;;3.97;2.67;;;2.20;98.90;;;;;;5042903;28;20663;-45
2024/01/17 07:54:43;;;;;;;5.28;3.63;;;2.20;98.70;;;;;;5041710;28;20220;-45
2024/01/17 07:57:12;;;;;;;5.47;3.55;;;2.10;98.20;;;;;;5039358;28;20227;-45
2024/01/17 07:59:41;;;;;;;5.15;3.80;;;2.10;98.10;;;;;;5040652;28;20612;-46
2024/01/17 08:02:10;;;;;;;9.30;4.60;;;2.10;98.20;;;;;;5045662;28;20227;-45
2024/01/17 08:04:38;;;;;;;6.10;3.50;;;2.00;98.20;;;;;;5037292;28;20198;-45
2024/01/17 08:07:07;;;;;;;6.72;4.00;;;2.00;97.90;;;;;;5037937;28;20249;-45
2024/01/17 08:09:36;;;;;;;5.60;3.20;;;2.00;98.30;;;;;;5043995;28;20201;-44
2024/01/17 08:12:06;;;;;;;4.80;3.40;;;2.00;98.50;;;;;;5036034;28;20640;-45
2024/01/17 08:14:35;;;;;;;9.25;6.70;;;2.00;98.90;;;;;;5042966;28;20682;-45
2024/01/17 08:17:03;;;;;;;9.52;7.05;;;2.00;97.90;;;;;;5042718;28;20519;-45
2024/01/17 08:19:31;;;;;;;7.65;6.68;;;1.90;96.20;;;;;;5042183;28;20197;-45
2024/01/17 08:21:59;;;;;;;8.32;6.15;;;1.80;97.30;;;;;;5037600;28;20259;-45
2024/01/17 08:24:27;;;;;;;8.15;5.55;;;1.90;97.30;;;;;;5043306;28;20267;-45
2024/01/17 08:26:57;;;;;;;10.32;6.82;;;1.90;97.30;;;;;;5038122;28;20637;-45
2024/01/17 08:29:25;;;;;;;10.55;6.13;;;1.90;97.40;;;;;;5044540;28;20220;-45
2024/01/17 08:31:53;;;;;;;7.55;6.30;;;1.90;97.40;;;;;;5051133;28;20327;-45
2024/01/17 08:34:22;;;;;;;8.82;6.25;;;1.90;97.50;;;;;;5040394;28;20203;-45
2024/01/17 08:36:50;;;;;;;7.63;6.55;;;2.00;97.50;;;;;;5038061;28;20229;-45
2024/01/17 08:39:20;;;;;;;8.07;6.10;;;2.00;97.70;;;;;;5050041;28;20200;-45
2024/01/17 08:41:48;;;;;;;8.70;6.57;;;2.00;97.60;;;;;;5044691;28;20950;-45
2024/01/17 08:44:18;;;;;;;8.02;6.45;;;2.00;98.00;;;;;;5040519;28;20276;-45
2024/01/17 08:46:48;;;;;;;9.75;6.43;;;2.00;97.90;;;;;;5039470;28;20312;-47
2024/01/17 08:49:16;;;;;;;9.95;6.55;;;2.00;97.90;;;;;;5041860;28;20279;-45
2024/01/17 08:51:44;;;;;;;12.05;7.43;;;2.00;97.70;;;;;;5045119;28;20244;-45
2024/01/17 08:54:12;;;;;;;9.27;5.35;;;2.00;98.00;;;;;;5040351;28;20193;-45
2024/01/17 08:56:41;;;;;;;8.70;6.43;;;2.00;97.80;;;;;;5039933;28;20229;-44
2024/01/17 08:59:09;;;;;;;7.18;5.22;;;2.00;98.00;;;;;;5042155;28;20565;-45
2024/01/17 09:01:39;;;;;;;8.32;7.47;;;2.00;97.90;;;;;;5042254;28;20259;-46
2024/01/17 09:04:07;;;;;;;9.85;6.50;;;2.00;98.00;;;;;;5043839;28;20201;-45
2024/01/17 09:06:36;;;;;;;6.20;5.60;;;2.00;98.00;;;;;;5035142;28;20225;-45
2024/01/17 09:09:04;;;;;;;7.07;5.45;;;2.00;98.10;;;;;;5047689;28;20266;-45
2024/01/17 09:11:33;;;;;;;7.07;5.30;;;2.00;98.20;;;;;;5038432;28;20898;-45
2024/01/17 09:14:01;;;;;;;9.82;5.50;;;2.00;98.40;;;;;;5041487;28;20271;-45
2024/01/17 09:16:30;;;;;;;9.68;5.82;;;2.00;98.20;;;;;;5039881;28;20222;-45
2024/01/17 09:19:00;;;;;;;9.73;6.85;;;2.00;98.20;;;;;;5032928;28;20188;-45
2024/01/17 09:21:30;;;;;;;8.10;5.35;;;2.00;98.00;;;;;;5047362;28;20733;-46
2024/01/17 09:23:58;;;;;;;7.35;4.72;;;2.00;98.30;;;;;;5047327;28;20544;-45
2024/01/17 09:26:26;;;;;;;6.32;4.80;;;2.00;98.20;;;;;;5037923;28;20228;-45
2024/01/17 09:28:54;;;;;;;5.97;5.28;;;2.00;98.40;;;;;;5040763;28;20193;-45
2024/01/17 09:31:22;;;;;;;7.93;5.85;;;2.00;98.50;;;;;;5041186;28;20221;-45
2024/01/17 09:33:51;;;;;;;8.57;6.60;;;2.00;98.50;;;;;;5042194;28;20580;-45
2024/01/17 09:36:21;;;;;;;7.88;5.47;;;2.00;98.40;;;;;;5044106;28;20192;-45
2024/01/17 09:38:49;;;;;;;7.35;5.75;;;2.00;98.30;;;;;;5050182;28;20322;-44
2024/01/17 09:41:17;;;;;;;10.05;6.40;;;2.00;98.40;;;;;;5041014;28;20213;-45
2024/01/17 09:43:45;;;;;;;6.82;4.90;;;2.00;98.30;;;;;;5044402;28;20775;-44
2024/01/17 09:46:14;;;;;;;6.07;5.18;;;2.00;98.60;;;;;;5036369;28;20206;-45
2024/01/17 09:48:44;;;;;;;7.05;5.70;;;2.00;98.50;;;;;;5036900;28;20201;-45
2024/01/17 09:51:16;;;;;;;7.40;4.70;;;2.00;98.60;;;;;;5038088;28;20307;-44
2024/01/17 09:53:49;;;;;;;5.95;4.55;;;2.10;98.60;;;;;;5035663;28;20208;-44
2024/01/17 09:56:21;;;;;;;9.10;5.63;;;2.10;98.90;;;;;;5042627;28;20405;-43
2024/01/17 09:58:54;;;;;;;6.78;4.93;;;2.10;98.40;;;;;;5045259;28;20280;-44
2024/01/17 10:01:24;;;;;;;9.23;5.20;;;2.10;98.50;;;;;;5043054;28;20260;-44
2024/01/17 10:03:56;;;;;;;8.68;5.03;;;2.10;98.90;;;;;;5047606;28;20799;-44
2024/01/17 10:06:26;;;;;;;7.00;5.47;;;2.10;98.80;;;;;;5043459;28;20471;-44
2024/01/17 10:08:57;;;;;;;5.70;4.40;;;2.10;98.80;;;;;;5046297;28;20204;-46
2024/01/17 10:11:26;;;;;;;5.57;4.18;;;2.10;98.80;;;;;;5034579;28;20717;-46
2024/01/17 10:13:54;;;;;;;5.13;3.95;;;2.10;98.90;;;;;;5038344;28;20197;-45
2024/01/17 10:16:23;;;;;;;5.95;4.45;;;2.10;98.90;;;;;;5027317;28;20213;-46
2024/01/17 10:18:51;;;;;;;6.50;5.00;;;2.10;99.00;;;;;;5035808;28;20189;-46
2024/01/17 10:21:19;;;;;;;5.75;4.38;;;2.10;99.00;;;;;;5036089;28;20205;-46
2024/01/17 10:23:49;;;;;;;6.63;4.57;;;2.10;99.00;;;;;;5055189;28;20243;-46
2024/01/17 10:26:22;;;;;;;5.75;4.07;;;2.10;99.00;;;;;;5039203;28;20212;-44
2024/01/17 10:28:52;;;;;;;8.45;5.65;;;2.10;98.90;;;;;;5038988;28;20201;-46
2024/01/17 10:31:21;;;;;;;8.20;4.60;;;2.10;98.70;;;;;;5040304;28;20251;-46
2024/01/17 10:33:50;;;;;;;5.65;4.55;;;2.10;98.70;;;;;;5036053;28;20423;-46
2024/01/17 10:36:19;;;;;;;8.98;4.80;;;2.10;98.90;;;;;;5042874;28;20288;-45
2024/01/17 10:38:49;;;;;;;4.88;4.20;;;2.10;98.90;;;;;;5040577;28;20288;-45
2024/01/17 10:41:18;;;;;;;4.82;4.32;;;2.10;98.90;;;;;;5041312;28;20563;-45
2024/01/17 10:43:54;;;;;;;9.70;5.35;;;2.10;98.90;;;;;;5050220;28;20203;-45
2024/01/17 10:46:22;;;;;;;7.85;5.22;;;2.10;98.80;;;;;;5018081;28;20271;-45
2024/01/17 10:48:51;;;;;;;5.80;4.03;;;2.10;98.90;;;;;;5036161;28;20212;-45
2024/01/17 10:51:21;;;;;;;6.07;4.55;;;2.10;99.00;;;;;;5042529;28;20228;-46
2024/01/17 10:53:50;;;;;;;5.75;4.10;;;2.10;99.00;;;;;;5039004;28;20185;-46
2024/01/17 10:56:29;;;;;;;5.28;3.70;;;2.10;99.00;;;;;;5043170;28;20300;-45
2024/01/17 10:59:00;;;;;;;6.03;4.07;;;2.10;99.10;;;;;;5042392;28;20197;-45
2024/01/17 11:01:35;;;;;;;5.30;3.88;;;2.10;99.10;;;;;;5040086;28;20228;-45
2024/01/17 11:04:11;;;;;;;6.15;4.25;;;2.10;99.00;;;;;;5043076;28;20208;-45
2024/01/17 11:06:41;;;;;;;5.90;3.95;;;2.10;99.00;;;;;;5038678;28;20213;-45
2024/01/17 11:09:10;;;;;;;5.13;4.10;;;2.10;99.10;;;;;;5042305;28;20262;-46
2024/01/17 11:11:42;;;;;;;4.40;3.60;;;2.10;99.00;;;;;;5040448;28;20232;-45
2024/01/17 11:14:12;;;;;;;6.03;4.45;;;2.10;99.20;;;;;;5035014;28;20201;-45
2024/01/17 11:16:46;;;;;;;8.25;4.65;;;2.10;99.20;;;;;;5023265;28;20674;-45
2024/01/17 11:19:16;;;;;;;6.30;4.25;;;2.10;99.10;;;;;;5040200;28;20193;-44
2024/01/17 11:21:45;;;;;;;6.72;4.13;;;2.10;99.20;;;;;;5041187;28;20221;-45
2024/01/17 11:24:25;;;;;;;5.93;4.10;;;2.10;99.20;;;;;;5038192;28;20586;-44
2024/01/17 11:27:00;;;;;;;5.70;3.78;;;2.20;99.20;;;;;;5038045;28;20217;-45
2024/01/17 11:29:37;;;;;;;7.15;4.20;;;2.20;99.20;;;;;;5039053;28;20199;-45
2024/01/17 11:32:14;;;;;;;5.32;3.47;;;2.20;99.30;;;;;;5054382;28;20246;-45
2024/01/17 11:34:42;;;;;;;4.65;3.40;;;2.20;99.30;;;;;;5055534;28;20279;-44
2024/01/17 11:37:10;;;;;;;6.32;3.92;;;2.20;99.30;;;;;;5054006;28;20228;-45
2024/01/17 11:39:39;;;;;;;5.97;3.67;;;2.20;99.30;;;;;;5051351;28;20621;-45
2024/01/17 11:42:09;;;;;;;5.82;3.85;;;2.20;99.30;;;;;;5036058;28;20229;-45
2024/01/17 11:44:37;;;;;;;3.42;3.10;;;2.20;99.30;;;;;;5053595;28;20207;-45
2024/01/17 11:47:07;;;;;;;5.45;3.75;;;2.20;99.30;;;;;;5052061;28;20232;-45
2024/01/17 11:49:40;;;;;;;5.68;3.88;;;2.20;99.30;;;;;;5053684;28;20197;-45
2024/01/17 11:52:24;;;;;;;5.47;3.17;;;2.20;99.30;;;;;;5043977;28;20251;-45
2024/01/17 11:54:53;;;;;;;4.40;3.30;;;2.20;99.30;;;;;;5041889;28;20194;-45
2024/01/17 11:57:25;;;;;;;5.03;3.47;;;2.20;99.80;;;;;;5040453;28;20232;-45
2024/01/17 12:00:11;;;;;;;3.65;2.75;;;2.20;99.30;;;;;;5042098;28;20666;-45
2024/01/17 12:02:41;;;;;;;5.13;3.10;;;2.20;99.30;;;;;;5042251;28;20217;-45
2024/01/17 12:05:11;;;;;;;5.95;3.70;;;2.20;99.30;;;;;;5039685;28;20275;-45
2024/01/17 12:07:40;;;;;;;4.75;3.70;;;2.20;99.40;;;;;;5033475;28;20324;-45
2024/01/17 12:10:10;;;;;;;4.15;3.20;;;2.20;99.30;;;;;;5038698;28;20205;-45
2024/01/17 12:12:42;;;;;;;4.47;3.10;;;2.20;99.40;;;;;;5040458;28;20413;-45
2024/01/17 12:15:11;;;;;;;4.60;4.00;;;2.20;99.80;;;;;;5042926;28;20752;-46
2024/01/17 12:17:41;;;;;;;4.38;3.05;;;2.20;99.40;;;;;;5037268;28;20213;-44
2024/01/17 12:20:11;;;;;;;5.43;3.20;;;2.20;99.40;;;;;;5036628;28;20214;-45
2024/01/17 12:22:39;;;;;;;3.97;3.00;;;2.20;99.40;;;;;;5036562;28;20221;-44
2024/01/17 12:25:09;;;;;;;6.15;3.50;;;2.20;99.40;;;;;;5046093;28;20193;-45
2024/01/17 12:27:37;;;;;;;4.75;3.00;;;2.20;99.40;;;;;;5037901;28;20217;-46
2024/01/17 12:30:08;;;;;;;4.35;3.15;;;2.20;99.40;;;;;;5041964;28;20204;-45
2024/01/17 12:32:36;;;;;;;5.32;3.35;;;2.20;99.40;;;;;;5038551;28;20220;-45
2024/01/17 12:35:06;;;;;;;4.57;3.60;;;2.20;99.40;;;;;;5023841;28;20235;-45
2024/01/17 12:37:35;;;;;;;5.03;3.10;;;2.20;99.40;;;;;;5046261;28;20225;-45
2024/01/17 12:40:05;;;;;;;4.00;3.20;;;2.20;99.90;;;;;;5045093;28;20206;-45
2024/01/17 12:42:33;;;;;;;4.15;3.05;;;2.20;99.40;;;;;;5043273;28;20221;-46
2024/01/17 12:45:02;;;;;;;5.05;3.55;;;2.20;99.40;;;;;;5047774;28;20566;-46
2024/01/17 12:47:32;;;;;;;3.80;2.70;;;2.20;99.40;;;;;;5045336;28;20245;-45
2024/01/17 12:50:00;;;;;;;4.70;2.90;;;2.20;99.40;;;;;;5043777;28;20196;-45
2024/01/17 12:52:28;;;;;;;4.57;3.22;;;2.20;99.40;;;;;;5044613;28;20231;-45
2024/01/17 12:54:57;;;;;;;4.60;2.90;;;2.20;99.40;;;;;;5045677;28;20186;-45
2024/01/17 12:57:26;;;;;;;3.40;3.10;;;2.20;99.50;;;;;;5043213;28;20227;-45
2024/01/17 12:59:55;;;;;;;3.65;3.03;;;2.20;99.40;;;;;;5046327;28;20611;-45
2024/01/17 13:02:23;;;;;;;4.55;2.90;;;2.20;99.40;;;;;;5044504;28;20216;-45
2024/01/17 13:05:09;;;;;;;4.20;2.97;;;2.20;99.50;;;;;;5038389;28;20201;-45
2024/01/17 13:07:40;;;;;;;5.50;3.33;;;2.20;99.50;;;;;;5035551;28;20244;-45